LIC0268 EGPH-EIDW
Flight info
| Callsign | LIC0268 |
|---|---|
| Flight time | N/A |
| Altitude | 22000 |
| Route | GOSAM P600 TRN/N0395F240 DCT BLACA P620 NIMAT NIMAT3R |
| Aircraft | A320/M-SDE3FGHIRWY/LB1 |
Departure
| Time | 2026-05-04 10:22 |
|---|---|
| Airport | Edinburgh Airport (EGPH) |
Arrival
| Time | N/A |
|---|---|
| Airport | Dublin Airport (EIDW) |
| Time | Latitude | Longitude | Altitude | Speed | Heading |
|---|---|---|---|---|---|
| 2026-05-04 09:46 | 55.94905 | -3.36494 | 114 ft | 0 kts | 148° |
| 2026-05-04 10:12 | 55.94916 | -3.36507 | 112 ft | 4 kts | 144° |
| 2026-05-04 10:13 | 55.94936 | -3.36538 | 114 ft | 4 kts | 128° |
| 2026-05-04 10:13 | 55.94948 | -3.36577 | 113 ft | 4 kts | 88° |
| 2026-05-04 10:13 | 55.94944 | -3.36602 | 114 ft | 1 kts | 59° |
| 2026-05-04 10:13 | 55.94943 | -3.36605 | 114 ft | 0 kts | 59° |
| 2026-05-04 10:16 | 55.94945 | -3.36602 | 114 ft | 2 kts | 59° |
| 2026-05-04 10:16 | 55.94959 | -3.36561 | 113 ft | 6 kts | 59° |
| 2026-05-04 10:17 | 55.94981 | -3.36494 | 113 ft | 6 kts | 59° |
| 2026-05-04 10:17 | 55.95005 | -3.36425 | 115 ft | 7 kts | 56° |
| 2026-05-04 10:19 | 55.95294 | -3.35802 | 116 ft | 16 kts | 58° |
| 2026-05-04 10:19 | 55.95353 | -3.35629 | 115 ft | 17 kts | 58° |
| 2026-05-04 10:19 | 55.95412 | -3.35459 | 113 ft | 12 kts | 58° |
| 2026-05-04 10:19 | 55.95491 | -3.35436 | 113 ft | 8 kts | 333° |
| 2026-05-04 10:20 | 55.95493 | -3.35437 | 113 ft | 0 kts | 333° |
| 2026-05-04 10:20 | 55.95493 | -3.35438 | 113 ft | 1 kts | 333° |
| 2026-05-04 10:20 | 55.95521 | -3.35465 | 115 ft | 8 kts | 329° |
| 2026-05-04 10:20 | 55.95558 | -3.35581 | 113 ft | 14 kts | 256° |
| 2026-05-04 10:21 | 55.95515 | -3.35731 | 113 ft | 0 kts | 239° |
| 2026-05-04 10:21 | 55.95392 | -3.36101 | 111 ft | 74 kts | 240° |
| 2026-05-04 10:21 | 55.95016 | -3.37216 | 112 ft | 135 kts | 239° |
| 2026-05-04 10:22 | 55.93858 | -3.40469 | 1161 ft | 163 kts | 238° |
| 2026-05-04 10:22 | 55.93241 | -3.42203 | 1950 ft | 167 kts | 240° |
| 2026-05-04 10:22 | 55.92601 | -3.44083 | 2415 ft | 188 kts | 241° |
| 2026-05-04 10:23 | 55.91882 | -3.46210 | 2875 ft | 213 kts | 240° |
| 2026-05-04 10:23 | 55.91072 | -3.48591 | 3371 ft | 237 kts | 240° |
| 2026-05-04 10:25 | 55.88571 | -3.69659 | 6010 ft | 255 kts | 261° |
| 2026-05-04 10:25 | 55.88246 | -3.72868 | 6013 ft | 256 kts | 261° |
| 2026-05-04 10:25 | 55.87935 | -3.75947 | 6020 ft | 256 kts | 261° |
| 2026-05-04 10:25 | 55.87622 | -3.79048 | 6020 ft | 255 kts | 261° |
| 2026-05-04 10:26 | 55.87311 | -3.82178 | 6025 ft | 255 kts | 261° |
| 2026-05-04 10:26 | 55.87006 | -3.85282 | 6035 ft | 254 kts | 261° |
| 2026-05-04 10:26 | 55.86709 | -3.88306 | 6037 ft | 255 kts | 261° |
| 2026-05-04 10:26 | 55.86398 | -3.91436 | 6039 ft | 255 kts | 261° |
| 2026-05-04 10:27 | 55.86084 | -3.94556 | 6040 ft | 255 kts | 261° |
| 2026-05-04 10:27 | 55.85767 | -3.97672 | 6040 ft | 256 kts | 261° |
| 2026-05-04 10:27 | 55.85453 | -4.00772 | 6044 ft | 256 kts | 261° |
| 2026-05-04 10:27 | 55.85139 | -4.03901 | 6046 ft | 256 kts | 261° |
| 2026-05-04 10:28 | 55.84826 | -4.07012 | 6051 ft | 256 kts | 261° |
| 2026-05-04 10:28 | 55.84428 | -4.10093 | 6053 ft | 256 kts | 252° |
| 2026-05-04 10:28 | 55.83662 | -4.12908 | 6054 ft | 258 kts | 239° |
| 2026-05-04 10:28 | 55.82514 | -4.15399 | 6056 ft | 261 kts | 226° |
| 2026-05-04 10:29 | 55.81066 | -4.17386 | 6056 ft | 265 kts | 217° |
| 2026-05-04 10:29 | 55.79561 | -4.19217 | 6057 ft | 264 kts | 217° |
| 2026-05-04 10:29 | 55.78040 | -4.21074 | 6145 ft | 268 kts | 218° |
| 2026-05-04 10:29 | 55.76591 | -4.22862 | 6980 ft | 269 kts | 218° |
| 2026-05-04 10:30 | 55.75030 | -4.24799 | 8015 ft | 271 kts | 218° |
| 2026-05-04 10:30 | 55.73470 | -4.26743 | 8947 ft | 276 kts | 218° |
| 2026-05-04 10:30 | 55.71884 | -4.28719 | 9850 ft | 280 kts | 218° |
| 2026-05-04 10:30 | 55.70256 | -4.30749 | 10449 ft | 295 kts | 218° |
| 2026-05-04 10:31 | 55.68508 | -4.32932 | 10788 ft | 319 kts | 217° |
| 2026-05-04 10:31 | 55.66681 | -4.35207 | 11287 ft | 333 kts | 217° |
| 2026-05-04 10:32 | 55.54895 | -4.49682 | 15611 ft | 361 kts | 217° |
| 2026-05-04 10:33 | 55.52816 | -4.52236 | 16302 ft | 365 kts | 217° |
| 2026-05-04 10:33 | 55.50712 | -4.54818 | 16985 ft | 369 kts | 217° |
| 2026-05-04 10:33 | 55.48626 | -4.57375 | 17654 ft | 372 kts | 217° |
| 2026-05-04 10:33 | 55.46482 | -4.60000 | 18334 ft | 376 kts | 216° |
| 2026-05-04 10:34 | 55.44357 | -4.62594 | 18902 ft | 380 kts | 216° |
| 2026-05-04 10:34 | 55.42163 | -4.65258 | 19425 ft | 385 kts | 216° |
| 2026-05-04 10:34 | 55.39938 | -4.67955 | 19970 ft | 390 kts | 216° |
| 2026-05-04 10:34 | 55.37692 | -4.70674 | 20523 ft | 395 kts | 216° |
| 2026-05-04 10:35 | 55.35436 | -4.73402 | 21070 ft | 399 kts | 216° |
| 2026-05-04 10:35 | 55.33135 | -4.76194 | 21615 ft | 404 kts | 216° |
| 2026-05-04 10:35 | 55.30778 | -4.78874 | 21992 ft | 409 kts | 210° |
| 2026-05-04 10:35 | 55.28232 | -4.81160 | 22078 ft | 412 kts | 208° |
| 2026-05-04 10:36 | 55.25782 | -4.83313 | 22084 ft | 413 kts | 208° |
| 2026-05-04 10:36 | 55.23196 | -4.85579 | 22086 ft | 413 kts | 208° |
| 2026-05-04 10:36 | 55.20621 | -4.87835 | 22088 ft | 413 kts | 208° |
| 2026-05-04 10:36 | 55.18091 | -4.90048 | 22086 ft | 413 kts | 208° |
| 2026-05-04 10:37 | 55.15549 | -4.92271 | 22082 ft | 414 kts | 207° |
| 2026-05-04 10:37 | 55.12971 | -4.94523 | 22082 ft | 414 kts | 207° |
| 2026-05-04 10:37 | 55.10394 | -4.96769 | 22087 ft | 415 kts | 207° |
| 2026-05-04 10:37 | 55.07802 | -4.99024 | 22087 ft | 415 kts | 207° |
| 2026-05-04 10:39 | 54.92279 | -5.12487 | 22092 ft | 415 kts | 207° |
| 2026-05-04 10:39 | 54.89680 | -5.14703 | 22091 ft | 416 kts | 204° |
| 2026-05-04 10:39 | 54.86981 | -5.16371 | 22088 ft | 416 kts | 194° |
| 2026-05-04 10:40 | 54.84149 | -5.17449 | 22085 ft | 417 kts | 192° |
| 2026-05-04 10:40 | 54.81307 | -5.18483 | 22085 ft | 417 kts | 192° |
| 2026-05-04 10:40 | 54.78467 | -5.19521 | 22086 ft | 417 kts | 192° |
| 2026-05-04 10:40 | 54.75623 | -5.20568 | 22097 ft | 417 kts | 192° |
| 2026-05-04 10:41 | 54.72815 | -5.21602 | 22100 ft | 417 kts | 192° |
| 2026-05-04 10:41 | 54.69957 | -5.22649 | 22101 ft | 417 kts | 192° |
| 2026-05-04 10:41 | 54.67109 | -5.23692 | 22102 ft | 417 kts | 192° |
| 2026-05-04 10:41 | 54.64304 | -5.24724 | 22105 ft | 418 kts | 192° |
| 2026-05-04 10:42 | 54.61460 | -5.25766 | 22111 ft | 417 kts | 192° |
| 2026-05-04 10:42 | 54.58613 | -5.26803 | 22111 ft | 417 kts | 192° |
| 2026-05-04 10:42 | 54.55772 | -5.27838 | 22111 ft | 417 kts | 192° |
| 2026-05-04 10:42 | 54.52926 | -5.28871 | 22108 ft | 417 kts | 192° |
| 2026-05-04 10:43 | 54.50084 | -5.29959 | 22108 ft | 417 kts | 195° |
| 2026-05-04 10:44 | 54.31799 | -5.44816 | 22124 ft | 415 kts | 206° |
| 2026-05-04 10:45 | 54.29233 | -5.46970 | 22117 ft | 415 kts | 206° |
| 2026-05-04 10:45 | 54.26640 | -5.49147 | 22116 ft | 415 kts | 206° |
| 2026-05-04 10:45 | 54.24038 | -5.51330 | 22117 ft | 415 kts | 206° |
| 2026-05-04 10:45 | 54.21440 | -5.53506 | 22117 ft | 415 kts | 206° |
| 2026-05-04 10:46 | 54.18878 | -5.55645 | 22119 ft | 415 kts | 206° |
| 2026-05-04 10:46 | 54.16278 | -5.57808 | 22114 ft | 414 kts | 206° |
| 2026-05-04 10:46 | 54.13683 | -5.59964 | 22118 ft | 414 kts | 206° |
| 2026-05-04 10:46 | 54.11082 | -5.62127 | 22118 ft | 414 kts | 206° |
| 2026-05-04 10:47 | 54.08489 | -5.64282 | 22115 ft | 415 kts | 206° |
| 2026-05-04 10:47 | 54.05923 | -5.66415 | 22114 ft | 415 kts | 206° |
| 2026-05-04 10:47 | 54.03328 | -5.68572 | 22110 ft | 415 kts | 206° |
| 2026-05-04 10:47 | 54.00732 | -5.70722 | 22110 ft | 415 kts | 205° |
| 2026-05-04 10:49 | 53.82623 | -5.85820 | 22117 ft | 415 kts | 206° |
| 2026-05-04 10:49 | 53.80040 | -5.88007 | 22114 ft | 414 kts | 206° |
| 2026-05-04 10:50 | 53.77463 | -5.90188 | 22110 ft | 414 kts | 206° |